Time;durP1;ratioP1;P1;durP2;ratioP2;P2;SDS_P1;SDS_P2;PMS_P1;PMS_P2;Temp;Humidity;BMP_temperature;BMP_pressure;BME280_temperature;BME280_humidity;BME280_pressure;Samples;Min_cycle;Max_cycle;Signal;HPM_P1;HPM_P2
2023/03/12 00:00:39;;;;;;;17.95;7.13;;;-1.70;99.90;;;;;;5057249;28;20049;-80
2023/03/12 00:03:05;;;;;;;15.68;7.68;;;-1.70;99.90;;;;;;5068960;28;20044;-79
2023/03/12 00:05:31;;;;;;;16.88;9.35;;;-1.80;99.90;;;;;;5062161;28;20041;-79
2023/03/12 00:07:58;;;;;;;17.88;8.82;;;-1.70;99.90;;;;;;5069210;28;20386;-79
2023/03/12 00:10:28;;;;;;;12.70;8.25;;;-1.80;99.90;;;;;;5070907;28;20040;-78
2023/03/12 00:12:54;;;;;;;16.08;7.47;;;-1.80;99.90;;;;;;5054675;28;20053;-79
2023/03/12 00:15:20;;;;;;;15.93;8.10;;;-1.80;99.90;;;;;;5072616;28;20048;-79
2023/03/12 00:17:46;;;;;;;13.48;7.20;;;-1.90;99.90;;;;;;5067980;28;20048;-79
2023/03/12 00:20:12;;;;;;;15.90;7.53;;;-1.90;99.90;;;;;;5062859;28;20128;-83
2023/03/12 00:22:38;;;;;;;12.20;7.13;;;-1.80;99.90;;;;;;5069600;28;20528;-79
2023/03/12 00:25:09;;;;;;;15.88;7.40;;;-1.90;99.90;;;;;;5072418;28;20448;-79
2023/03/12 00:27:35;;;;;;;14.30;7.82;;;-1.90;99.90;;;;;;5068232;28;20032;-79
2023/03/12 00:30:02;;;;;;;12.52;6.97;;;-1.90;99.90;;;;;;5068414;28;20055;-78
2023/03/12 00:32:28;;;;;;;16.20;6.85;;;-2.00;99.90;;;;;;5059920;28;20094;-79
2023/03/12 00:34:55;;;;;;;13.25;7.40;;;-2.00;99.90;;;;;;5056876;28;20045;-79
2023/03/12 00:37:21;;;;;;;12.25;7.53;;;-2.00;99.90;;;;;;5064037;28;20044;-82
2023/03/12 00:39:47;;;;;;;17.90;9.35;;;-2.00;99.90;;;;;;5075908;28;20051;-81
2023/03/12 00:42:13;;;;;;;18.35;9.35;;;-2.00;99.90;;;;;;5066469;28;20045;-80
2023/03/12 00:44:39;;;;;;;18.85;9.48;;;-2.10;99.90;;;;;;5066212;28;20519;-80
2023/03/12 00:47:05;;;;;;;22.55;11.13;;;-2.10;99.90;;;;;;5077450;28;20485;-79
2023/03/12 00:49:30;;;;;;;20.40;9.07;;;-2.10;99.90;;;;;;5070109;28;20076;-82
2023/03/12 00:51:56;;;;;;;14.00;9.10;;;-2.10;99.90;;;;;;5053003;28;20048;-81
2023/03/12 00:54:22;;;;;;;18.95;9.88;;;-2.10;99.90;;;;;;5058813;28;20044;-86
2023/03/12 00:56:48;;;;;;;16.20;8.73;;;-2.20;99.90;;;;;;5058811;28;20048;-80
2023/03/12 00:59:15;;;;;;;13.73;8.55;;;-2.20;99.90;;;;;;5079319;28;20119;-80
2023/03/12 01:01:41;;;;;;;14.48;8.85;;;-2.20;99.90;;;;;;5071800;28;20098;-80
2023/03/12 01:04:08;;;;;;;17.70;8.13;;;-2.20;99.90;;;;;;5052130;28;20048;-81
2023/03/12 01:06:34;;;;;;;16.42;8.27;;;-2.20;99.90;;;;;;5066976;28;20068;-81
2023/03/12 01:09:04;;;;;;;14.23;8.18;;;-2.20;99.90;;;;;;5049516;28;20476;-81
2023/03/12 01:11:31;;;;;;;16.95;8.48;;;-2.20;99.90;;;;;;5067538;28;20051;-80
2023/03/12 01:14:01;;;;;;;13.50;8.15;;;-2.20;99.90;;;;;;5071211;28;20067;-82
2023/03/12 01:16:29;;;;;;;13.95;7.95;;;-2.20;99.90;;;;;;5069866;28;20048;-81
2023/03/12 01:18:59;;;;;;;17.98;8.30;;;-2.20;99.90;;;;;;5077759;28;20040;-82
2023/03/12 01:21:26;;;;;;;14.27;7.90;;;-2.30;99.90;;;;;;5062366;28;20045;-86
2023/03/12 01:23:53;;;;;;;16.70;8.30;;;-2.20;99.90;;;;;;5064772;28;20056;-80
2023/03/12 01:26:19;;;;;;;14.30;7.45;;;-2.20;99.90;;;;;;5069067;28;20554;-80
2023/03/12 01:28:44;;;;;;;16.95;8.15;;;-2.20;99.90;;;;;;5069631;28;20056;-82
2023/03/12 01:31:13;;;;;;;15.32;8.10;;;-2.20;99.90;;;;;;5063787;28;20037;-80
2023/03/12 01:33:39;;;;;;;13.23;7.32;;;-2.20;99.90;;;;;;5070617;28;20086;-82
2023/03/12 01:36:14;;;;;;;16.70;7.65;;;-2.10;99.90;;;;;;5072251;28;20133;-83
2023/03/12 01:38:40;;;;;;;16.00;8.43;;;-2.10;99.90;;;;;;5066744;28;20063;-81
2023/03/12 01:41:05;;;;;;;20.67;7.45;;;-2.00;99.90;;;;;;5068054;28;20044;-81
2023/03/12 01:43:34;;;;;;;14.10;7.32;;;-2.00;99.90;;;;;;5069668;28;20068;-81
2023/03/12 01:46:15;;;;;;;16.50;7.20;;;-2.00;99.90;;;;;;5066099;28;20052;-80
2023/03/12 01:49:07;;;;;;;18.05;7.10;;;-2.00;99.90;;;;;;5062619;28;20109;-81
2023/03/12 01:52:04;;;;;;;12.90;6.72;;;-2.00;99.90;;;;;;5033391;28;20068;-83
2023/03/12 01:54:51;;;;;;;15.27;7.80;;;-2.00;99.90;;;;;;5065254;28;20052;-86
2023/03/12 01:57:25;;;;;;;14.10;7.03;;;-1.90;99.90;;;;;;5057635;28;20060;-81
2023/03/12 01:59:57;;;;;;;11.98;7.72;;;-1.90;99.90;;;;;;5066280;28;20071;-80
2023/03/12 02:02:27;;;;;;;13.75;6.72;;;-1.80;99.90;;;;;;5073662;28;20032;-80
2023/03/12 02:05:26;;;;;;;17.00;6.95;;;-1.70;99.90;;;;;;5073973;28;20045;-80
2023/03/12 02:07:52;;;;;;;15.18;6.82;;;-1.60;99.90;;;;;;5073855;28;20079;-81
2023/03/12 02:10:18;;;;;;;16.27;7.65;;;-1.60;99.90;;;;;;5074322;28;20162;-80
2023/03/12 02:12:44;;;;;;;15.65;7.35;;;-1.50;99.90;;;;;;5074752;28;20050;-83
2023/03/12 02:15:10;;;;;;;14.23;6.82;;;-1.40;99.90;;;;;;5068930;28;20099;-80
2023/03/12 02:17:36;;;;;;;14.43;7.50;;;-1.40;99.90;;;;;;5074654;28;20115;-81
2023/03/12 02:20:12;;;;;;;11.80;7.25;;;-1.40;99.90;;;;;;5070764;28;20149;-82
2023/03/12 02:22:41;;;;;;;15.02;7.28;;;-1.30;99.90;;;;;;5073445;28;20044;-78
2023/03/12 02:25:29;;;;;;;12.57;7.07;;;-1.20;99.90;;;;;;5069934;28;20052;-78
2023/03/12 02:27:57;;;;;;;13.00;6.78;;;-1.20;99.90;;;;;;5075360;28;20496;-78
2023/03/12 02:30:24;;;;;;;10.82;6.72;;;-1.20;99.90;;;;;;5067852;28;20114;-79
2023/03/12 02:32:52;;;;;;;13.30;6.57;;;-1.20;99.90;;;;;;5055644;28;20505;-78
2023/03/12 02:35:18;;;;;;;14.57;6.75;;;-1.20;99.90;;;;;;5069136;28;20041;-79
2023/03/12 02:37:52;;;;;;;14.38;6.65;;;-1.10;99.90;;;;;;5069048;28;20398;-79
2023/03/12 02:40:42;;;;;;;16.85;6.90;;;-1.10;99.90;;;;;;5069433;28;20508;-79
2023/03/12 02:43:09;;;;;;;10.90;6.82;;;-1.10;99.90;;;;;;5068537;28;20070;-79
2023/03/12 02:45:36;;;;;;;12.00;6.25;;;-1.10;99.90;;;;;;5069973;28;20066;-84
2023/03/12 02:48:03;;;;;;;12.23;5.75;;;-1.10;99.90;;;;;;5067180;28;20053;-81
2023/03/12 02:50:28;;;;;;;13.40;6.15;;;-1.10;99.90;;;;;;5069781;28;20044;-79
2023/03/12 02:52:54;;;;;;;15.88;6.63;;;-1.10;99.90;;;;;;5066675;28;20052;-79
2023/03/12 02:55:20;;;;;;;12.38;5.93;;;-1.00;99.90;;;;;;5068436;28;20105;-78
2023/03/12 02:57:45;;;;;;;12.15;6.20;;;-1.00;99.90;;;;;;5072514;28;20045;-80
2023/03/12 03:00:13;;;;;;;12.57;6.50;;;-0.90;99.90;;;;;;5066484;28;20044;-80
2023/03/12 03:02:40;;;;;;;10.90;6.05;;;-0.90;99.90;;;;;;5063485;28;20048;-83
2023/03/12 03:05:07;;;;;;;15.68;6.45;;;-0.90;99.90;;;;;;5072456;28;20044;-81
2023/03/12 03:07:32;;;;;;;10.60;5.55;;;-0.90;99.90;;;;;;5063624;28;20122;-86
2023/03/12 03:10:02;;;;;;;11.98;6.32;;;-0.90;99.90;;;;;;5065288;28;20485;-79
2023/03/12 03:12:29;;;;;;;15.07;5.30;;;-0.80;99.90;;;;;;5075116;28;20051;-79
2023/03/12 03:14:55;;;;;;;10.10;5.57;;;-0.80;99.90;;;;;;5071607;28;20062;-86
2023/03/12 03:17:23;;;;;;;17.05;6.65;;;-0.80;99.90;;;;;;5079769;28;20131;-79
2023/03/12 03:19:52;;;;;;;15.95;6.38;;;-0.80;99.90;;;;;;5069667;28;20036;-79
2023/03/12 03:22:19;;;;;;;12.85;5.38;;;-0.70;99.90;;;;;;5066893;28;20067;-79
2023/03/12 03:24:45;;;;;;;10.70;5.68;;;-0.70;99.90;;;;;;5069975;28;20068;-83
2023/03/12 03:27:11;;;;;;;13.00;6.47;;;-0.70;99.90;;;;;;5073090;28;20071;-78
2023/03/12 03:29:37;;;;;;;10.52;5.78;;;-0.60;99.90;;;;;;5061183;28;20052;-85
2023/03/12 03:32:03;;;;;;;11.25;5.97;;;-0.60;99.90;;;;;;5056003;28;20317;-79
2023/03/12 03:34:29;;;;;;;15.15;6.63;;;-0.60;99.90;;;;;;5071914;28;20041;-79
2023/03/12 03:36:55;;;;;;;11.05;6.00;;;-0.60;99.90;;;;;;5065843;28;20048;-79
2023/03/12 03:39:20;;;;;;;11.60;6.40;;;-0.50;99.90;;;;;;5065526;28;20044;-81
2023/03/12 03:41:46;;;;;;;15.40;6.50;;;-0.50;99.90;;;;;;5070687;28;20048;-85
2023/03/12 03:44:12;;;;;;;13.43;5.68;;;-0.50;99.90;;;;;;5071837;28;20044;-79
2023/03/12 03:46:39;;;;;;;10.93;5.72;;;-0.50;99.90;;;;;;5068150;28;20041;-81
2023/03/12 03:49:05;;;;;;;8.98;5.30;;;-0.50;99.90;;;;;;5080419;28;20040;-80
2023/03/12 03:51:31;;;;;;;8.85;5.55;;;-0.40;99.90;;;;;;5059912;28;20044;-82
2023/03/12 03:53:59;;;;;;;12.30;5.50;;;-0.40;99.90;;;;;;5059376;28;20092;-79
2023/03/12 03:56:25;;;;;;;8.98;5.78;;;-0.40;99.90;;;;;;5065027;28;20049;-80
2023/03/12 03:58:51;;;;;;;11.27;5.78;;;-0.40;99.90;;;;;;5055425;28;20047;-79
2023/03/12 04:01:17;;;;;;;11.68;6.40;;;-0.30;99.90;;;;;;5072152;28;20045;-82
2023/03/12 04:03:43;;;;;;;10.98;5.60;;;-0.30;99.90;;;;;;5083806;28;20098;-78
2023/03/12 04:06:10;;;;;;;12.10;6.18;;;-0.30;99.90;;;;;;5051233;28;20489;-79
2023/03/12 04:08:37;;;;;;;12.05;5.90;;;-0.20;99.90;;;;;;5061740;28;20453;-79
2023/03/12 04:11:17;;;;;;;11.55;5.55;;;-0.10;99.90;;;;;;5065150;28;20041;-79
2023/03/12 04:13:43;;;;;;;9.20;4.97;;;-0.20;99.90;;;;;;5058442;28;20033;-79
2023/03/12 04:16:10;;;;;;;10.50;4.90;;;-0.20;99.90;;;;;;5075402;28;20049;-80
2023/03/12 04:18:36;;;;;;;12.20;6.15;;;-0.20;99.90;;;;;;5050951;28;20057;-80
2023/03/12 04:21:03;;;;;;;8.02;5.15;;;-0.10;99.90;;;;;;5070644;28;20043;-81
2023/03/12 04:23:28;;;;;;;9.20;4.70;;;-0.10;99.90;;;;;;5069210;28;20048;-80
2023/03/12 04:25:54;;;;;;;9.60;5.30;;;-0.10;99.90;;;;;;5054302;28;20056;-81
2023/03/12 04:28:20;;;;;;;9.68;5.43;;;-0.10;99.90;;;;;;5067948;28;20040;-80
2023/03/12 04:30:54;;;;;;;10.65;5.20;;;-0.10;99.90;;;;;;5061748;28;20067;-81
2023/03/12 04:33:19;;;;;;;9.85;5.35;;;-0.10;99.90;;;;;;5063947;28;20044;-80
2023/03/12 04:35:52;;;;;;;10.52;5.20;;;-0.10;99.90;;;;;;5065106;28;20052;-80
2023/03/12 04:38:19;;;;;;;9.80;5.40;;;-0.10;99.90;;;;;;5062356;28;20049;-80
2023/03/12 04:40:44;;;;;;;10.73;5.57;;;-0.10;99.90;;;;;;5062023;28;20478;-81
2023/03/12 04:43:10;;;;;;;10.85;5.20;;;0.00;99.90;;;;;;5052103;28;20056;-80
2023/03/12 04:45:38;;;;;;;16.00;5.07;;;-0.10;99.90;;;;;;5071872;28;20275;-80
2023/03/12 04:48:04;;;;;;;9.57;5.32;;;-0.10;99.90;;;;;;5069056;28;20907;-80
2023/03/12 04:50:30;;;;;;;9.55;4.57;;;-0.10;99.90;;;;;;5058750;28;20041;-79
2023/03/12 04:52:56;;;;;;;11.95;5.10;;;0.00;99.90;;;;;;5067931;28;20513;-81
2023/03/12 04:55:22;;;;;;;12.75;5.50;;;0.00;99.90;;;;;;5071695;28;20054;-80
2023/03/12 04:57:47;;;;;;;7.75;4.95;;;0.00;99.90;;;;;;5070851;28;20055;-80
2023/03/12 05:00:14;;;;;;;11.93;4.53;;;0.00;99.90;;;;;;5060678;28;20055;-79
2023/03/12 05:02:40;;;;;;;8.20;5.00;;;0.10;99.90;;;;;;5065541;28;20056;-81
2023/03/12 05:05:07;;;;;;;8.52;4.90;;;0.10;99.90;;;;;;5040953;28;20056;-80
2023/03/12 05:07:32;;;;;;;10.20;4.70;;;0.10;99.90;;;;;;5059105;28;20068;-83
2023/03/12 05:09:58;;;;;;;8.55;5.07;;;0.10;99.90;;;;;;5061574;28;20496;-82
2023/03/12 05:12:24;;;;;;;9.10;5.28;;;0.20;99.90;;;;;;5064822;28;20048;-81
2023/03/12 05:14:49;;;;;;;12.80;5.32;;;0.20;99.90;;;;;;5066444;28;20055;-81
2023/03/12 05:17:15;;;;;;;8.80;5.03;;;0.20;99.90;;;;;;5065500;28;20057;-78
2023/03/12 05:19:41;;;;;;;10.32;5.47;;;0.20;99.90;;;;;;5061869;28;20043;-86
2023/03/12 05:22:06;;;;;;;9.05;4.43;;;0.20;99.90;;;;;;5069229;28;20059;-79
2023/03/12 05:24:32;;;;;;;7.70;4.97;;;0.30;99.90;;;;;;5060927;28;20055;-79
2023/03/12 05:26:58;;;;;;;11.45;4.82;;;0.30;99.90;;;;;;5070443;28;20044;-85
2023/03/12 05:29:23;;;;;;;10.23;4.88;;;0.30;99.90;;;;;;5059920;28;20099;-79
2023/03/12 05:31:49;;;;;;;8.38;4.85;;;0.30;99.90;;;;;;5063887;28;20068;-79
2023/03/12 05:34:15;;;;;;;8.82;5.00;;;0.40;99.90;;;;;;5057488;28;20151;-78
2023/03/12 05:36:41;;;;;;;8.27;5.03;;;0.50;99.90;;;;;;5058682;28;20102;-78
2023/03/12 05:39:07;;;;;;;8.52;4.82;;;0.40;99.90;;;;;;5077181;28;20455;-80
2023/03/12 05:41:33;;;;;;;10.50;5.60;;;0.40;99.90;;;;;;5068035;28;20120;-80
2023/03/12 05:43:58;;;;;;;14.90;6.55;;;0.40;99.90;;;;;;5055041;28;20452;-85
2023/03/12 05:46:26;;;;;;;10.35;4.90;;;0.50;99.90;;;;;;5065371;28;20049;-80
2023/03/12 05:48:52;;;;;;;7.90;5.18;;;0.50;99.90;;;;;;5076424;28;20101;-80
2023/03/12 05:51:18;;;;;;;10.88;5.00;;;0.50;99.90;;;;;;5070092;28;20079;-86
2023/03/12 05:53:43;;;;;;;11.57;5.75;;;0.50;99.90;;;;;;5057584;28;20379;-79
2023/03/12 05:56:15;;;;;;;8.95;5.68;;;0.50;99.90;;;;;;5055145;28;20044;-80
2023/03/12 05:58:41;;;;;;;16.85;6.22;;;0.50;99.90;;;;;;5066944;28;20044;-79
2023/03/12 06:01:16;;;;;;;12.50;6.05;;;0.50;99.90;;;;;;5066872;28;20131;-79
2023/03/12 06:03:42;;;;;;;13.48;5.90;;;0.60;99.90;;;;;;5072570;28;20053;-79
2023/03/12 06:06:09;;;;;;;10.35;6.60;;;0.60;99.90;;;;;;5046864;28;20045;-80
2023/03/12 06:08:34;;;;;;;14.48;6.53;;;0.60;99.90;;;;;;5067518;28;20076;-80
2023/03/12 06:11:00;;;;;;;10.45;7.00;;;0.70;99.90;;;;;;5063565;28;20091;-79
2023/03/12 06:13:27;;;;;;;12.93;7.35;;;0.70;99.90;;;;;;5063565;28;20428;-81
2023/03/12 06:15:52;;;;;;;12.60;6.60;;;0.70;99.90;;;;;;5062663;28;20044;-80
2023/03/12 06:18:18;;;;;;;14.25;7.28;;;0.70;99.90;;;;;;5068431;28;20174;-80
2023/03/12 06:20:44;;;;;;;12.63;7.53;;;0.70;99.90;;;;;;5051658;28;20401;-79
2023/03/12 06:23:10;;;;;;;15.35;7.30;;;0.70;99.90;;;;;;5072486;28;20048;-80
2023/03/12 06:25:36;;;;;;;15.93;7.53;;;0.80;99.90;;;;;;5050742;28;20053;-80
2023/03/12 06:28:01;;;;;;;13.77;7.72;;;0.80;99.90;;;;;;5046478;28;20049;-77
2023/03/12 06:30:27;;;;;;;17.80;8.30;;;0.80;99.90;;;;;;5062045;28;20117;-80
2023/03/12 06:32:53;;;;;;;15.32;8.00;;;0.80;99.90;;;;;;5068709;28;20047;-79
2023/03/12 06:35:19;;;;;;;13.07;7.82;;;0.90;99.90;;;;;;5063937;28;20447;-80
2023/03/12 06:37:45;;;;;;;15.18;7.80;;;0.80;99.90;;;;;;5067795;28;20041;-79
2023/03/12 06:40:11;;;;;;;12.88;7.68;;;0.90;99.90;;;;;;5067188;28;20045;-80
2023/03/12 06:42:38;;;;;;;10.90;7.47;;;0.90;99.90;;;;;;5066175;28;20049;-79
2023/03/12 06:45:05;;;;;;;10.50;7.53;;;1.00;99.90;;;;;;5070520;28;20036;-80
2023/03/12 06:47:30;;;;;;;13.52;8.00;;;1.00;99.90;;;;;;5066919;28;20072;-80
2023/03/12 06:49:56;;;;;;;11.32;7.57;;;1.10;99.90;;;;;;5072817;28;20498;-80
2023/03/12 06:52:22;;;;;;;12.18;7.68;;;1.00;99.90;;;;;;5074306;28;20052;-83
2023/03/12 06:54:47;;;;;;;12.65;7.90;;;1.10;99.90;;;;;;5071623;28;20059;-80
2023/03/12 06:57:15;;;;;;;12.60;6.80;;;1.10;99.90;;;;;;5074285;28;20394;-81
2023/03/12 06:59:41;;;;;;;14.43;7.75;;;1.10;99.90;;;;;;5070761;28;20051;-80
2023/03/12 07:02:10;;;;;;;16.52;7.15;;;1.10;99.90;;;;;;5065579;28;20054;-80
2023/03/12 07:04:35;;;;;;;12.30;7.47;;;1.20;99.90;;;;;;5067976;28;20045;-80
2023/03/12 07:07:01;;;;;;;10.65;6.43;;;1.20;99.90;;;;;;5061312;28;20049;-79
2023/03/12 07:09:27;;;;;;;12.30;6.85;;;1.30;99.90;;;;;;5048595;28;20056;-79
2023/03/12 07:11:53;;;;;;;15.20;7.53;;;1.40;99.90;;;;;;5054658;28;20075;-80
2023/03/12 07:14:20;;;;;;;11.60;7.07;;;1.50;99.90;;;;;;5070775;28;20052;-81
2023/03/12 07:16:46;;;;;;;10.18;7.00;;;1.50;99.90;;;;;;5070873;28;20106;-79
2023/03/12 07:19:12;;;;;;;11.27;7.75;;;1.50;99.90;;;;;;5069141;28;20076;-83
2023/03/12 07:21:38;;;;;;;13.13;8.18;;;1.40;99.90;;;;;;5061041;28;20131;-79
2023/03/12 07:24:06;;;;;;;15.38;8.32;;;1.40;99.90;;;;;;5064976;28;20652;-80
2023/03/12 07:26:34;;;;;;;13.90;8.35;;;1.30;99.90;;;;;;5055458;28;20045;-83
2023/03/12 07:29:00;;;;;;;11.70;8.52;;;1.20;99.90;;;;;;5035488;28;20060;-82
2023/03/12 07:31:25;;;;;;;17.58;9.93;;;1.20;99.90;;;;;;5067756;28;20048;-79
2023/03/12 07:33:51;;;;;;;16.55;9.75;;;1.10;99.90;;;;;;5072974;28;20048;-80
2023/03/12 07:36:17;;;;;;;21.58;9.93;;;1.10;99.90;;;;;;5071241;28;20063;-82
2023/03/12 07:38:43;;;;;;;17.13;10.38;;;1.10;99.90;;;;;;5070928;28;20044;-80
2023/03/12 07:41:08;;;;;;;14.80;9.95;;;1.10;99.90;;;;;;5071679;28;20394;-79
2023/03/12 07:43:34;;;;;;;20.48;10.18;;;1.10;99.90;;;;;;5054298;28;20207;-84
2023/03/12 07:46:00;;;;;;;17.08;9.50;;;1.00;99.90;;;;;;5073211;28;20051;-79
2023/03/12 07:48:25;;;;;;;16.80;10.38;;;1.00;99.90;;;;;;5068842;28;20119;-81
2023/03/12 07:50:51;;;;;;;17.23;10.77;;;1.00;99.90;;;;;;5065656;28;20056;-81
2023/03/12 07:53:17;;;;;;;17.35;10.95;;;1.00;99.90;;;;;;5069841;28;20067;-84
2023/03/12 07:55:44;;;;;;;20.58;11.02;;;1.00;99.90;;;;;;5070795;28;20131;-81
2023/03/12 07:58:11;;;;;;;23.08;11.05;;;1.00;99.90;;;;;;5066011;28;20063;-80
2023/03/12 08:00:37;;;;;;;22.00;11.90;;;1.00;99.90;;;;;;5061671;28;20131;-91
2023/03/12 08:03:03;;;;;;;18.17;10.82;;;1.00;99.90;;;;;;5046793;28;20102;-89
2023/03/12 08:05:29;;;;;;;18.15;11.23;;;1.10;99.90;;;;;;5061974;28;20655;-83
2023/03/12 08:07:55;;;;;;;17.23;11.48;;;1.00;99.90;;;;;;5070499;28;20045;-82
2023/03/12 08:10:21;;;;;;;18.50;11.80;;;1.00;99.90;;;;;;5072753;28;20066;-86
2023/03/12 08:12:47;;;;;;;22.27;12.50;;;1.00;99.90;;;;;;5057889;28;20052;-87
2023/03/12 08:15:13;;;;;;;18.35;11.70;;;1.10;99.90;;;;;;5060385;28;20039;-88
2023/03/12 08:17:39;;;;;;;17.63;11.98;;;1.10;99.90;;;;;;5056966;28;20040;-90
2023/03/12 08:20:09;;;;;;;23.33;12.63;;;1.10;99.90;;;;;;5042386;28;20040;-91
2023/03/12 08:22:38;;;;;;;20.00;11.88;;;1.20;99.90;;;;;;5056498;28;20040;-88
2023/03/12 08:25:05;;;;;;;21.10;11.90;;;1.30;99.90;;;;;;5043842;28;20060;-82
2023/03/12 08:27:30;;;;;;;22.15;12.18;;;1.20;99.90;;;;;;5054836;28;20082;-86
2023/03/12 08:29:56;;;;;;;17.38;11.88;;;1.30;99.90;;;;;;5056593;28;20135;-90
2023/03/12 08:32:24;;;;;;;20.23;12.07;;;1.40;99.90;;;;;;5059594;28;20040;-88
2023/03/12 08:34:49;;;;;;;20.33;12.05;;;1.20;99.90;;;;;;5063374;28;20048;-85
2023/03/12 08:37:15;;;;;;;20.15;12.25;;;1.20;99.90;;;;;;5058015;28;20084;-86
2023/03/12 08:39:41;;;;;;;16.33;11.52;;;1.30;99.90;;;;;;5052502;28;20537;-82
2023/03/12 08:42:06;;;;;;;21.25;11.98;;;1.30;99.90;;;;;;5059713;28;20074;-81
2023/03/12 08:44:32;;;;;;;20.17;12.15;;;1.10;99.90;;;;;;5055203;28;20420;-85
2023/03/12 08:46:58;;;;;;;19.48;11.90;;;1.10;99.90;;;;;;5058740;28;20044;-81
2023/03/12 08:49:24;;;;;;;17.00;12.15;;;1.10;99.90;;;;;;5073180;28;20036;-88
2023/03/12 08:51:53;;;;;;;19.40;11.27;;;1.10;99.90;;;;;;5058431;28;20726;-87
2023/03/12 08:54:19;;;;;;;20.95;12.40;;;1.20;99.90;;;;;;5055318;28;20047;-79
2023/03/12 08:56:50;;;;;;;19.15;12.32;;;1.30;99.90;;;;;;5052813;28;20032;-79
2023/03/12 08:59:17;;;;;;;21.85;12.45;;;1.40;99.90;;;;;;5057530;28;20056;-79
2023/03/12 09:01:43;;;;;;;22.52;12.50;;;1.60;99.90;;;;;;5055942;28;20705;-81
2023/03/12 09:04:08;;;;;;;17.50;11.98;;;1.70;99.90;;;;;;5056950;28;20052;-77
2023/03/12 09:06:34;;;;;;;18.90;12.85;;;1.80;99.90;;;;;;5055541;28;20049;-82
2023/03/12 09:09:04;;;;;;;21.52;12.27;;;1.90;99.90;;;;;;5039570;28;20565;-80
2023/03/12 09:11:32;;;;;;;19.55;12.63;;;1.90;99.90;;;;;;5057681;28;20127;-84
2023/03/12 09:13:59;;;;;;;20.73;13.40;;;1.90;99.90;;;;;;5048476;28;20095;-79
2023/03/12 09:16:25;;;;;;;20.38;13.18;;;1.90;99.90;;;;;;5058128;28;20082;-77
2023/03/12 09:18:50;;;;;;;20.00;13.10;;;1.90;99.90;;;;;;5050908;28;20044;-80
2023/03/12 09:21:16;;;;;;;22.13;13.35;;;2.00;99.90;;;;;;5056753;28;20040;-81
2023/03/12 09:23:42;;;;;;;25.95;15.48;;;1.90;99.90;;;;;;5058721;28;20438;-79
2023/03/12 09:26:12;;;;;;;20.83;13.95;;;1.80;99.90;;;;;;5054706;28;20505;-80
2023/03/12 09:28:38;;;;;;;21.75;14.63;;;1.90;99.90;;;;;;5053923;28;20071;-78
2023/03/12 09:31:04;;;;;;;24.45;15.15;;;1.90;99.90;;;;;;5055054;28;20154;-83
2023/03/12 09:33:32;;;;;;;22.58;15.55;;;1.90;99.90;;;;;;5056327;28;20060;-84
2023/03/12 09:35:59;;;;;;;34.53;17.83;;;2.00;99.90;;;;;;5056159;28;20078;-76
2023/03/12 09:38:25;;;;;;;25.13;15.88;;;2.10;99.90;;;;;;5056109;28;20101;-83
2023/03/12 09:40:51;;;;;;;26.98;16.10;;;2.10;99.90;;;;;;5051315;28;20045;-78
2023/03/12 09:43:24;;;;;;;27.77;16.27;;;2.00;99.90;;;;;;5055187;28;20058;-82
2023/03/12 09:45:51;;;;;;;25.98;16.95;;;2.00;99.90;;;;;;5057413;28;20048;-83
2023/03/12 09:48:28;;;;;;;32.92;17.15;;;1.90;99.90;;;;;;5056496;28;20044;-81
2023/03/12 09:50:54;;;;;;;25.80;17.80;;;1.90;99.90;;;;;;5056242;28;20045;-84
2023/03/12 09:53:19;;;;;;;29.90;18.98;;;1.90;99.90;;;;;;5054589;28;20128;-83
2023/03/12 09:55:47;;;;;;;28.55;18.95;;;2.00;99.90;;;;;;5053904;28;20044;-81
2023/03/12 09:58:29;;;;;;;35.35;20.48;;;2.10;99.90;;;;;;5057366;28;20040;-79
2023/03/12 10:01:16;;;;;;;31.45;19.17;;;2.10;99.90;;;;;;5052974;28;20138;-83
2023/03/12 10:04:00;;;;;;;36.75;21.83;;;2.00;99.90;;;;;;5055946;28;20490;-79
2023/03/12 10:06:40;;;;;;;38.05;22.27;;;2.00;99.90;;;;;;5051724;28;20055;-84
2023/03/12 10:09:25;;;;;;;40.50;23.40;;;2.00;99.90;;;;;;5053269;28;20044;-81
2023/03/12 10:12:02;;;;;;;41.58;24.35;;;1.90;99.90;;;;;;5053472;28;20061;-84
2023/03/12 10:14:28;;;;;;;41.33;23.60;;;2.00;99.90;;;;;;5056146;28;20041;-81
2023/03/12 10:17:02;;;;;;;46.97;26.25;;;2.00;99.90;;;;;;5055114;28;20478;-79
2023/03/12 10:19:57;;;;;;;47.63;26.88;;;2.10;99.90;;;;;;5057523;28;20040;-80
2023/03/12 10:22:51;;;;;;;44.70;25.95;;;2.10;99.90;;;;;;5060547;28;20044;-79
2023/03/12 10:25:38;;;;;;;50.67;25.73;;;2.20;99.90;;;;;;5059499;28;20116;-78
2023/03/12 10:28:16;;;;;;;44.70;26.40;;;2.10;99.90;;;;;;5060106;28;20489;-81
2023/03/12 10:30:53;;;;;;;45.40;26.55;;;2.10;99.90;;;;;;5059741;28;20346;-81
2023/03/12 10:33:22;;;;;;;47.90;26.25;;;2.10;99.90;;;;;;5070025;28;20044;-81
2023/03/12 10:35:49;;;;;;;44.45;26.92;;;2.20;99.90;;;;;;5062992;28;20489;-81
2023/03/12 10:38:21;;;;;;;45.45;26.67;;;2.20;99.90;;;;;;5060882;28;20052;-82
2023/03/12 10:40:46;;;;;;;44.65;25.08;;;2.30;99.90;;;;;;5078487;28;20048;-79
2023/03/12 10:43:12;;;;;;;42.83;25.75;;;2.30;99.90;;;;;;5065508;28;20045;-80
2023/03/12 10:46:00;;;;;;;48.42;27.45;;;2.40;99.90;;;;;;5060538;28;20046;-85
2023/03/12 10:48:26;;;;;;;43.13;26.65;;;2.40;99.90;;;;;;5068358;28;20052;-82
2023/03/12 10:51:02;;;;;;;46.40;26.33;;;2.50;99.90;;;;;;5064020;28;20067;-82
2023/03/12 10:53:34;;;;;;;45.83;25.95;;;2.50;99.90;;;;;;5060035;28;20044;-81
2023/03/12 10:56:11;;;;;;;43.60;25.48;;;2.60;99.90;;;;;;5059550;28;20122;-83
2023/03/12 10:58:43;;;;;;;43.47;25.30;;;2.60;99.90;;;;;;5056414;28;20514;-83
2023/03/12 11:01:20;;;;;;;45.95;27.23;;;2.60;99.90;;;;;;5058292;28;20497;-84
2023/03/12 11:03:45;;;;;;;40.03;25.60;;;2.70;99.90;;;;;;5056209;28;20040;-83
2023/03/12 11:06:25;;;;;;;46.67;26.80;;;2.70;99.90;;;;;;5054516;28;20040;-82
2023/03/12 11:09:16;;;;;;;46.97;28.20;;;2.80;99.90;;;;;;5043897;28;20549;-85
2023/03/12 11:11:44;;;;;;;42.22;23.65;;;2.90;99.90;;;;;;5056819;28;20139;-86
2023/03/12 11:14:11;;;;;;;41.55;23.52;;;2.90;99.90;;;;;;5056050;28;20048;-85
2023/03/12 11:16:40;;;;;;;46.53;24.05;;;2.90;99.90;;;;;;5058456;28;20063;-83
2023/03/12 11:19:06;;;;;;;36.38;22.10;;;2.90;99.90;;;;;;5062345;28;20051;-82
2023/03/12 11:21:35;;;;;;;36.95;21.80;;;3.10;99.90;;;;;;5056852;28;20033;-83
2023/03/12 11:24:03;;;;;;;42.28;23.55;;;3.10;99.90;;;;;;5054593;28;20059;-81
2023/03/12 11:26:52;;;;;;;39.20;24.60;;;3.20;99.90;;;;;;5056609;28;20159;-83
2023/03/12 11:29:38;;;;;;;37.20;20.20;;;3.30;99.90;;;;;;5057545;28;20084;-82
2023/03/12 11:32:29;;;;;;;32.83;19.73;;;3.30;99.90;;;;;;5056275;28;20449;-83
2023/03/12 11:34:55;;;;;;;40.08;23.05;;;3.30;99.90;;;;;;5055972;28;20048;-85
2023/03/12 11:37:52;;;;;;;37.83;20.40;;;3.40;99.90;;;;;;5059401;28;20046;-85
2023/03/12 11:40:50;;;;;;;39.00;19.63;;;3.50;99.90;;;;;;5027677;28;20056;-80
2023/03/12 11:43:40;;;;;;;34.95;20.33;;;3.50;99.90;;;;;;5019903;28;20056;-83
2023/03/12 11:46:31;;;;;;;34.95;19.17;;;3.60;99.90;;;;;;5059079;28;20045;-84
2023/03/12 11:49:24;;;;;;;35.70;20.33;;;3.70;99.90;;;;;;5062032;28;20052;-82
2023/03/12 11:51:56;;;;;;;36.28;19.13;;;3.80;99.90;;;;;;5059023;28;20083;-86
2023/03/12 11:54:40;;;;;;;38.83;19.55;;;4.00;99.90;;;;;;5059751;28;20041;-82
2023/03/12 11:57:29;;;;;;;33.05;18.95;;;4.10;99.90;;;;;;5054461;28;20121;-81
2023/03/12 12:00:19;;;;;;;34.30;19.75;;;4.10;99.90;;;;;;5072073;28;20557;-84
2023/03/12 12:03:09;;;;;;;32.65;19.45;;;4.30;99.90;;;;;;5066041;28;20075;-80
2023/03/12 12:05:58;;;;;;;32.47;18.58;;;4.30;99.90;;;;;;5066753;28;20036;-82
2023/03/12 12:08:31;;;;;;;34.20;18.40;;;4.40;99.90;;;;;;5072524;28;20123;-82
2023/03/12 12:11:04;;;;;;;27.75;16.80;;;4.50;99.90;;;;;;5070952;28;20063;-83
2023/03/12 12:13:36;;;;;;;29.65;17.23;;;4.50;99.90;;;;;;5065807;28;20066;-83
2023/03/12 12:16:29;;;;;;;33.53;18.88;;;4.50;99.90;;;;;;5062256;28;20115;-83
2023/03/12 12:19:29;;;;;;;34.72;17.55;;;4.50;99.90;;;;;;5055461;28;20084;-83
2023/03/12 12:22:04;;;;;;;34.47;18.45;;;4.60;99.90;;;;;;5067462;28;20127;-83
2023/03/12 12:25:02;;;;;;;35.17;17.98;;;4.70;99.90;;;;;;5071996;28;20102;-83
2023/03/12 12:28:17;;;;;;;35.05;18.30;;;4.70;99.90;;;;;;5065286;28;20044;-82
2023/03/12 12:31:24;;;;;;;36.25;20.50;;;4.90;99.90;;;;;;5044499;28;20044;-82
2023/03/12 12:34:08;;;;;;;33.22;19.10;;;5.00;99.90;;;;;;5063614;28;20094;-82
2023/03/12 12:36:35;;;;;;;38.67;22.98;;;5.10;99.90;;;;;;5051965;28;20372;-81
2023/03/12 12:39:09;;;;;;;39.50;20.52;;;5.20;99.90;;;;;;5057289;28;20045;-82
2023/03/12 12:41:40;;;;;;;47.33;26.50;;;5.30;99.90;;;;;;5066181;28;20043;-82
2023/03/12 12:44:29;;;;;;;35.00;18.60;;;5.40;99.90;;;;;;5069762;28;20371;-80
2023/03/12 12:47:05;;;;;;;36.33;19.73;;;5.50;99.90;;;;;;5069517;28;20120;-85
2023/03/12 12:49:58;;;;;;;43.00;24.48;;;5.50;99.90;;;;;;5063309;28;20119;-81
2023/03/12 12:52:25;;;;;;;36.03;21.30;;;5.60;99.90;;;;;;5065344;28;20126;-81
2023/03/12 12:55:09;;;;;;;45.22;23.10;;;5.70;99.90;;;;;;5069012;28;20082;-82